createdAt,value
2023-02-24T00:02:03.718Z,98548.95
2023-02-24T00:04:41.159Z,98540.95
2023-02-24T00:07:10.216Z,98533.27
2023-02-24T00:09:38.923Z,98532.46
2023-02-24T00:12:12.564Z,98529.66
2023-02-24T00:14:44.033Z,98528.48
2023-02-24T00:17:14.905Z,98522.27
2023-02-24T00:19:42.409Z,98521.06
2023-02-24T00:22:10.512Z,98519.85
2023-02-24T00:24:37.788Z,98516.15
2023-02-24T00:27:11.613Z,98518.08
2023-02-24T00:29:43.113Z,98513.54
2023-02-24T00:32:15.155Z,98507.45
2023-02-24T00:34:42.894Z,98505.36
2023-02-24T00:37:11.502Z,98504.06
2023-02-24T00:39:40.598Z,98497.74
2023-02-24T00:42:07.794Z,98497.77
2023-02-24T00:44:38.930Z,98493.42
2023-02-24T00:47:09.739Z,98490.45
2023-02-24T00:49:41.452Z,98487.64
2023-02-24T00:52:19.425Z,98488.77
2023-02-24T00:54:48.993Z,98488.61
2023-02-24T00:57:20.638Z,98487.15
2023-02-24T00:59:50.721Z,98488.27
2023-02-24T01:02:18.051Z,98485.09
2023-02-24T01:04:45.413Z,98480.83
2023-02-24T01:07:13.900Z,98477.42
2023-02-24T01:09:41.222Z,98473.98
2023-02-24T01:12:28.882Z,98471.83
2023-02-24T01:14:56.576Z,98467.84
2023-02-24T01:17:25.595Z,98464.33
2023-02-24T01:20:00.960Z,98462.20
2023-02-24T01:22:28.008Z,98460.98
2023-02-24T01:24:54.951Z,98458.32
2023-02-24T01:27:21.892Z,98455.48
2023-02-24T01:29:49.282Z,98455.26
2023-02-24T01:33:07.825Z,98453.98
2023-02-24T01:35:35.334Z,98447.91
2023-02-24T01:38:25.249Z,98442.95
2023-02-24T01:44:53.948Z,98435.06
2023-02-24T01:48:14.827Z,98434.86
2023-02-24T01:50:51.172Z,98431.36
2023-02-24T01:53:53.318Z,98431.05
2023-02-24T01:56:46.664Z,98429.52
2023-02-24T01:59:15.507Z,98429.88
2023-02-24T02:01:47.763Z,98428.14
2023-02-24T02:04:29.447Z,98426.73
2023-02-24T02:06:57.856Z,98427.22
2023-02-24T02:09:25.737Z,98419.55
2023-02-24T02:11:52.985Z,98422.21
2023-02-24T02:14:24.201Z,98422.40
2023-02-24T02:17:20.809Z,98418.27
2023-02-24T02:20:36.178Z,98419.87
2023-02-24T02:23:11.944Z,98413.42
2023-02-24T02:25:41.549Z,98408.23
2023-02-24T02:28:36.113Z,98406.66
2023-02-24T02:31:51.267Z,98402.38
2023-02-24T02:34:32.201Z,98394.45
2023-02-24T02:37:14.536Z,98391.18
2023-02-24T02:40:22.735Z,98387.27
2023-02-24T02:43:54.586Z,98384.66
2023-02-24T02:47:14.914Z,98377.86
2023-02-24T02:49:49.512Z,98380.60
2023-02-24T02:52:27.104Z,98378.81
2023-02-24T02:55:01.785Z,98375.13
2023-02-24T02:57:34.138Z,98377.80
2023-02-24T03:00:20.814Z,98374.50
2023-02-24T03:02:58.162Z,98366.64
2023-02-24T03:05:32.113Z,98366.34
2023-02-24T03:08:04.583Z,98365.84
2023-02-24T03:10:33.841Z,98365.48
2023-02-24T03:13:16.407Z,98365.71
2023-02-24T03:16:06.049Z,98359.71
2023-02-24T03:18:45.141Z,98363.81
2023-02-24T03:21:22.646Z,98363.61
2023-02-24T03:23:51.941Z,98364.27
2023-02-24T03:26:36.696Z,98363.11
2023-02-24T03:29:23.531Z,98365.27
2023-02-24T03:32:10.727Z,98360.19
2023-02-24T03:34:50.192Z,98358.69
2023-02-24T03:37:27.560Z,98356.10
2023-02-24T03:40:01.032Z,98349.13
2023-02-24T03:42:35.333Z,98348.52
2023-02-24T03:45:47.284Z,98346.67
2023-02-24T03:49:07.724Z,98348.15
2023-02-24T03:55:32.807Z,98345.15
2023-02-24T04:02:41.886Z,98336.80
2023-02-24T04:05:32.308Z,98337.30
2023-02-24T04:17:53.224Z,98320.98
2023-02-24T04:20:27.485Z,98317.83
2023-02-24T04:27:46.930Z,98304.79
2023-02-24T04:30:17.522Z,98299.23
2023-02-24T04:32:44.792Z,98292.97
2023-02-24T04:35:15.029Z,98287.80
2023-02-24T04:37:44.643Z,98288.85
2023-02-24T04:40:21.354Z,98281.34
2023-02-24T04:42:53.261Z,98282.23
2023-02-24T04:45:24.842Z,98280.63
2023-02-24T04:48:00.232Z,98280.30
2023-02-24T04:50:32.853Z,98274.15
2023-02-24T04:53:06.447Z,98269.31
2023-02-24T04:55:39.583Z,98266.09
2023-02-24T04:58:11.305Z,98260.98
2023-02-24T05:00:41.049Z,98257.61
2023-02-24T05:03:12.128Z,98250.45
2023-02-24T05:05:42.301Z,98246.67
2023-02-24T05:08:10.601Z,98247.80
2023-02-24T05:10:41.083Z,98246.99
2023-02-24T05:13:08.566Z,98246.94
2023-02-24T05:15:40.504Z,98244.13
2023-02-24T05:18:16.913Z,98242.14
2023-02-24T05:21:06.108Z,98237.06
2023-02-24T05:23:46.528Z,98235.14
2023-02-24T05:26:17.275Z,98232.35
2023-02-24T05:28:51.675Z,98233.20
2023-02-24T05:31:23.578Z,98233.92
2023-02-24T05:33:57.236Z,98234.37
2023-02-24T05:36:28.889Z,98235.20
2023-02-24T05:39:12.138Z,98234.77
2023-02-24T05:41:44.449Z,98239.27
2023-02-24T05:44:22.241Z,98237.27
2023-02-24T05:46:59.985Z,98236.13
2023-02-24T05:49:52.704Z,98234.29
2023-02-24T05:52:20.212Z,98232.11
2023-02-24T05:54:47.641Z,98232.20
2023-02-24T05:57:31.271Z,98233.88
2023-02-24T06:00:09.172Z,98233.05
2023-02-24T06:02:42.461Z,98236.89
2023-02-24T06:05:24.738Z,98234.71
2023-02-24T06:08:05.545Z,98231.49
2023-02-24T06:10:33.884Z,98231.27
2023-02-24T06:13:02.317Z,98230.61
2023-02-24T06:15:31.609Z,98227.86
2023-02-24T06:18:00.423Z,98225.80
2023-02-24T06:20:32.377Z,98223.17
2023-02-24T06:23:01.633Z,98218.87
2023-02-24T06:25:29.375Z,98218.17
2023-02-24T06:28:02.950Z,98215.44
2023-02-24T06:30:32.204Z,98212.34
2023-02-24T06:32:59.454Z,98208.96
2023-02-24T06:35:32.577Z,98209.27
2023-02-24T06:38:05.502Z,98202.42
2023-02-24T06:40:48.023Z,98199.03
2023-02-24T06:43:23.481Z,98193.61
2023-02-24T06:46:06.966Z,98193.69
2023-02-24T06:48:36.166Z,98194.64
2023-02-24T06:51:52.574Z,98192.89
2023-02-24T06:54:35.563Z,98186.02
2023-02-24T06:57:43.562Z,98181.17
2023-02-24T07:08:52.111Z,98169.83
2023-02-24T07:11:55.164Z,98166.96
2023-02-24T07:15:05.696Z,98161.69
2023-02-24T07:17:55.925Z,98159.70
2023-02-24T07:30:34.542Z,98146.86
2023-02-24T07:34:31.250Z,98143.80
2023-02-24T07:37:47.217Z,98139.86
2023-02-24T07:40:26.299Z,98132.55
2023-02-24T07:43:40.937Z,98129.39
2023-02-24T07:47:14.521Z,98124.64
2023-02-24T07:53:11.800Z,98111.13
2023-02-24T07:56:27.283Z,98105.82
2023-02-24T07:59:16.291Z,98101.77
2023-02-24T08:01:55.174Z,98101.84
2023-02-24T08:04:35.000Z,98094.11
2023-02-24T08:07:16.764Z,98093.50
2023-02-24T08:10:14.831Z,98086.34
2023-02-24T08:12:45.907Z,98086.42
2023-02-24T08:15:36.311Z,98084.71
2023-02-24T08:18:09.720Z,98083.61
2023-02-24T08:21:17.012Z,98084.80
2023-02-24T08:24:02.531Z,98076.90
2023-02-24T08:26:31.122Z,98075.94
2023-02-24T08:29:10.297Z,98072.44
2023-02-24T08:31:38.515Z,98071.10
2023-02-24T08:34:06.670Z,98066.89
2023-02-24T08:36:47.197Z,98066.61
2023-02-24T08:39:14.586Z,98066.73
2023-02-24T08:41:46.455Z,98062.70
2023-02-24T08:44:20.760Z,98058.75
2023-02-24T08:46:49.561Z,98057.67
2023-02-24T08:49:18.858Z,98060.44
2023-02-24T08:51:48.302Z,98059.50
2023-02-24T08:54:18.921Z,98056.31
2023-02-24T08:56:54.488Z,98052.01
2023-02-24T08:59:47.949Z,98051.66
2023-02-24T09:02:23.616Z,98051.15
2023-02-24T09:04:54.884Z,98047.30
2023-02-24T09:07:26.061Z,98043.92
2023-02-24T09:09:58.118Z,98041.55
2023-02-24T09:12:28.475Z,98039.62
2023-02-24T09:15:00.529Z,98035.96
2023-02-24T09:17:49.529Z,98028.14
2023-02-24T09:20:25.052Z,98026.80
2023-02-24T09:22:57.325Z,98023.54
2023-02-24T09:25:39.737Z,98015.80
2023-02-24T09:28:16.543Z,98015.85
2023-02-24T09:30:59.333Z,98012.52
2023-02-24T09:33:28.317Z,98011.02
2023-02-24T09:36:09.180Z,98009.54
2023-02-24T09:39:00.839Z,98007.34
2023-02-24T09:41:53.030Z,98005.63
2023-02-24T09:44:34.714Z,98003.23
2023-02-24T09:47:39.070Z,98000.93
2023-02-24T09:50:40.298Z,98003.48
2023-02-24T09:53:16.614Z,98003.20
2023-02-24T09:56:21.393Z,98002.06
2023-02-24T09:58:58.069Z,98002.20
2023-02-24T10:01:42.326Z,97996.02
2023-02-24T10:04:21.738Z,97996.17
2023-02-24T10:07:06.100Z,97993.31
2023-02-24T10:09:35.465Z,97989.50
2023-02-24T10:12:16.647Z,97984.69
2023-02-24T10:15:18.780Z,97980.46
2023-02-24T10:18:27.783Z,97976.57
2023-02-24T10:21:07.260Z,97972.54
2023-02-24T10:24:19.121Z,97969.52
2023-02-24T10:27:08.294Z,97962.29
2023-02-24T10:29:50.265Z,97956.77
2023-02-24T10:32:36.471Z,97954.81
2023-02-24T10:35:25.382Z,97949.86
2023-02-24T10:37:53.485Z,97937.14
2023-02-24T10:40:44.232Z,97934.21
2023-02-24T10:43:19.360Z,97925.29
2023-02-24T10:45:47.471Z,97916.13
2023-02-24T10:48:32.278Z,97911.92
2023-02-24T10:51:19.290Z,97910.13
2023-02-24T10:54:14.111Z,97906.19
2023-02-24T10:56:44.163Z,97896.13
2023-02-24T10:59:39.334Z,97895.02
2023-02-24T11:02:28.860Z,97887.53
2023-02-24T11:04:58.778Z,97877.14
2023-02-24T11:07:43.393Z,97875.78
2023-02-24T11:10:25.504Z,97873.67
2023-02-24T11:13:14.752Z,97866.91
2023-02-24T11:16:08.587Z,97861.15
2023-02-24T11:18:36.099Z,97855.16
2023-02-24T11:21:09.412Z,97856.52
2023-02-24T11:24:14.857Z,97851.27
2023-02-24T11:26:45.915Z,97848.30
2023-02-24T11:29:14.695Z,97844.40
2023-02-24T11:31:56.946Z,97838.81
2023-02-24T11:34:37.474Z,97836.52
2023-02-24T11:37:26.419Z,97834.63
2023-02-24T11:40:06.908Z,97829.10
2023-02-24T11:42:46.074Z,97826.25
2023-02-24T11:45:26.918Z,97824.63
2023-02-24T11:48:00.100Z,97816.46
2023-02-24T11:50:39.091Z,97808.29
2023-02-24T11:53:25.689Z,97806.55
2023-02-24T11:56:34.558Z,97799.86
2023-02-24T11:59:04.546Z,97795.23
2023-02-24T12:01:44.477Z,97787.59
2023-02-24T12:04:30.637Z,97790.50
2023-02-24T12:07:06.941Z,97791.02
2023-02-24T12:09:44.190Z,97788.91
2023-02-24T12:12:27.519Z,97783.48
2023-02-24T12:15:03.065Z,97777.20
2023-02-24T12:17:35.868Z,97772.58
2023-02-24T12:20:21.167Z,97763.11
2023-02-24T12:22:55.020Z,97758.66
2023-02-24T12:25:31.710Z,97748.80
2023-02-24T12:28:46.382Z,97736.64
2023-02-24T12:31:41.422Z,97733.48
2023-02-24T12:34:53.622Z,97732.78
2023-02-24T12:37:38.940Z,97728.38
2023-02-24T12:40:36.127Z,97728.20
2023-02-24T12:43:17.805Z,97723.92
2023-02-24T12:46:22.450Z,97719.96
2023-02-24T12:49:17.270Z,97717.88
2023-02-24T12:51:57.623Z,97720.05
2023-02-24T12:54:38.158Z,97716.42
2023-02-24T12:57:27.090Z,97711.12
2023-02-24T13:00:06.070Z,97711.88
2023-02-24T13:02:54.710Z,97708.59
2023-02-24T13:05:31.132Z,97706.14
2023-02-24T13:08:34.902Z,97709.05
2023-02-24T13:11:35.652Z,97707.83
2023-02-24T13:14:27.960Z,97706.03
2023-02-24T13:17:10.562Z,97703.59
2023-02-24T13:19:40.285Z,97700.06
2023-02-24T13:22:20.885Z,97700.53
2023-02-24T13:25:17.752Z,97705.37
2023-02-24T13:27:55.740Z,97705.17
2023-02-24T13:30:28.500Z,97702.60
2023-02-24T13:33:24.470Z,97696.79
2023-02-24T13:36:05.945Z,97697.22
2023-02-24T13:38:38.287Z,97693.80
2023-02-24T13:41:19.858Z,97687.14
2023-02-24T13:44:22.404Z,97690.33
2023-02-24T13:47:11.473Z,97688.42
2023-02-24T13:49:38.441Z,97682.85
2023-02-24T13:52:43.370Z,97679.07
2023-02-24T13:55:19.597Z,97675.69
2023-02-24T13:58:04.883Z,97674.09
2023-02-24T14:01:11.170Z,97667.48
2023-02-24T14:03:41.502Z,97669.20
2023-02-24T14:06:25.635Z,97664.85
2023-02-24T14:09:14.402Z,97658.06
2023-02-24T14:11:41.842Z,97651.55
2023-02-24T14:14:17.708Z,97651.97
2023-02-24T14:16:47.635Z,97646.34
2023-02-24T14:19:16.711Z,97644.79
2023-02-24T14:21:50.931Z,97642.95
2023-02-24T14:24:18.673Z,97643.86
2023-02-24T14:26:49.624Z,97645.20
2023-02-24T14:29:43.645Z,97642.30
2023-02-24T14:32:21.286Z,97644.14
2023-02-24T14:34:51.070Z,97641.13
2023-02-24T14:37:23.584Z,97639.66
2023-02-24T14:39:54.158Z,97640.75
2023-02-24T14:42:21.806Z,97635.23
2023-02-24T14:44:58.286Z,97630.92
2023-02-24T14:47:28.124Z,97629.77
2023-02-24T14:49:59.046Z,97628.84
2023-02-24T14:52:26.124Z,97630.66
2023-02-24T14:55:00.329Z,97625.38
2023-02-24T14:57:40.352Z,97618.63
2023-02-24T15:00:23.478Z,97615.85
2023-02-24T15:03:02.777Z,97603.02
2023-02-24T15:05:30.103Z,97596.88
2023-02-24T15:07:59.909Z,97596.13
2023-02-24T15:10:30.541Z,97593.22
2023-02-24T15:13:12.352Z,97586.80
2023-02-24T15:15:39.577Z,97585.12
2023-02-24T15:18:23.735Z,97579.64
2023-02-24T15:21:00.640Z,97572.20
2023-02-24T15:23:36.252Z,97562.17
2023-02-24T15:26:08.021Z,97556.17
2023-02-24T15:28:36.658Z,97551.63
2023-02-24T15:31:05.915Z,97551.20
2023-02-24T15:33:39.478Z,97547.46
2023-02-24T15:36:17.177Z,97545.23
2023-02-24T15:38:45.395Z,97542.17
2023-02-24T15:41:13.702Z,97541.20
2023-02-24T15:43:46.836Z,97539.14
2023-02-24T15:46:20.335Z,97535.70
2023-02-24T15:48:50.695Z,97532.02
2023-02-24T15:51:41.375Z,97532.61
2023-02-24T15:54:14.341Z,97531.77
2023-02-24T15:56:42.869Z,97527.63
2023-02-24T15:59:19.279Z,97529.14
2023-02-24T16:01:46.325Z,97531.17
2023-02-24T16:04:13.484Z,97530.09
2023-02-24T16:06:43.774Z,97536.00
2023-02-24T16:09:15.602Z,97536.21
2023-02-24T16:11:46.154Z,97532.14
2023-02-24T16:14:16.268Z,97532.16
2023-02-24T16:16:44.619Z,97531.05
2023-02-24T16:19:15.417Z,97535.73
2023-02-24T16:21:43.589Z,97529.34
2023-02-24T16:24:10.553Z,97527.66
2023-02-24T16:26:39.648Z,97528.28
2023-02-24T16:29:11.613Z,97527.42
2023-02-24T16:31:39.866Z,97532.16
2023-02-24T16:34:14.107Z,97541.59
2023-02-24T16:36:42.241Z,97547.80
2023-02-24T16:39:11.716Z,97558.16
2023-02-24T16:41:38.631Z,97560.92
2023-02-24T16:44:05.686Z,97558.74
2023-02-24T16:46:39.313Z,97551.86
2023-02-24T16:49:09.581Z,97557.45
2023-02-24T16:51:38.503Z,97558.24
2023-02-24T16:54:05.537Z,97551.46
2023-02-24T16:56:32.536Z,97548.78
2023-02-24T16:59:00.334Z,97544.66
2023-02-24T17:01:27.426Z,97540.80
2023-02-24T17:03:54.429Z,97539.27
2023-02-24T17:06:23.878Z,97534.29
2023-02-24T17:08:51.484Z,97535.64
2023-02-24T17:11:21.257Z,97532.58
2023-02-24T17:13:48.366Z,97530.81
2023-02-24T17:16:15.434Z,97528.16
2023-02-24T17:18:42.508Z,97524.45
2023-02-24T17:21:13.193Z,97520.73
2023-02-24T17:23:41.896Z,97510.36
2023-02-24T17:26:13.094Z,97499.67
2023-02-24T17:28:40.356Z,97487.42
2023-02-24T17:31:07.595Z,97482.69
2023-02-24T17:33:34.651Z,97479.71
2023-02-24T17:36:01.718Z,97481.29
2023-02-24T17:38:28.983Z,97480.91
2023-02-24T17:40:56.933Z,97476.86
2023-02-24T17:43:24.115Z,97475.34
2023-02-24T17:45:52.432Z,97474.86
2023-02-24T17:48:20.283Z,97473.88
2023-02-24T17:50:48.056Z,97477.81
2023-02-24T17:53:16.012Z,97474.80
2023-02-24T17:56:00.965Z,97474.94
2023-02-24T17:58:29.328Z,97471.88
2023-02-24T18:00:56.464Z,97473.25
2023-02-24T18:03:24.035Z,97471.87
2023-02-24T18:06:17.661Z,97469.17
2023-02-24T18:08:44.597Z,97468.12
2023-02-24T18:11:16.612Z,97472.73
2023-02-24T18:13:43.822Z,97476.79
2023-02-24T18:16:14.028Z,97456.50
2023-02-24T18:18:41.825Z,97451.06
2023-02-24T18:21:08.904Z,97441.77
2023-02-24T18:23:39.506Z,97429.27
2023-02-24T18:26:08.680Z,97425.30
2023-02-24T18:28:35.901Z,97430.63
2023-02-24T18:31:14.541Z,97432.18
2023-02-24T18:33:41.879Z,97427.60
2023-02-24T18:36:10.067Z,97426.08
2023-02-24T18:38:37.643Z,97425.83
2023-02-24T18:41:07.773Z,97427.38
2023-02-24T18:43:35.936Z,97425.77
2023-02-24T18:46:06.019Z,97420.75
2023-02-24T18:48:34.203Z,97414.45
2023-02-24T18:51:01.638Z,97421.71
2023-02-24T18:53:31.154Z,97421.21
2023-02-24T18:56:06.371Z,97418.58
2023-02-24T18:58:34.388Z,97417.02
2023-02-24T19:01:01.431Z,97415.14
2023-02-24T19:03:28.429Z,97412.12
2023-02-24T19:05:55.457Z,97411.24
2023-02-24T19:08:22.539Z,97405.43
2023-02-24T19:10:49.523Z,97403.70
2023-02-24T19:13:16.456Z,97400.39
2023-02-24T19:15:44.119Z,97395.23
2023-02-24T19:18:11.290Z,97387.20
2023-02-24T19:20:42.193Z,97385.94
2023-02-24T19:23:09.809Z,97386.02
2023-02-24T19:25:37.020Z,97382.40
2023-02-24T19:28:04.102Z,97378.53
2023-02-24T19:30:31.245Z,97374.10
2023-02-24T19:32:58.350Z,97369.30
2023-02-24T19:35:25.750Z,97368.27
2023-02-24T19:37:52.753Z,97368.59
2023-02-24T19:40:20.367Z,97363.08
2023-02-24T19:42:48.779Z,97363.34
2023-02-24T19:45:16.439Z,97355.80
2023-02-24T19:47:46.281Z,97355.92
2023-02-24T19:50:14.451Z,97348.63
2023-02-24T19:52:42.327Z,97351.30
2023-02-24T19:55:14.072Z,97355.90
2023-02-24T19:57:41.081Z,97349.91
2023-02-24T20:00:10.877Z,97342.81
2023-02-24T20:02:40.810Z,97337.71
2023-02-24T20:05:09.836Z,97332.91
2023-02-24T20:07:37.165Z,97331.47
2023-02-24T20:10:04.801Z,97328.22
2023-02-24T20:12:33.395Z,97328.55
2023-02-24T20:15:00.800Z,97331.39
2023-02-24T20:17:27.818Z,97327.52
2023-02-24T20:19:56.179Z,97320.64
2023-02-24T20:22:23.761Z,97315.48
2023-02-24T20:24:50.970Z,97309.17
2023-02-24T20:27:18.707Z,97299.99
2023-02-24T20:29:46.686Z,97291.72
2023-02-24T20:32:13.824Z,97287.19
2023-02-24T20:34:41.352Z,97287.52
2023-02-24T20:37:08.381Z,97280.27
2023-02-24T20:39:37.980Z,97276.02
2023-02-24T20:42:05.445Z,97269.50
2023-02-24T20:44:32.593Z,97266.09
2023-02-24T20:46:59.613Z,97263.84
2023-02-24T20:49:26.757Z,97254.27
2023-02-24T20:51:53.649Z,97246.23
2023-02-24T20:54:23.317Z,97235.97
2023-02-24T20:56:50.585Z,97234.48
2023-02-24T20:59:21.340Z,97236.59
2023-02-24T21:01:49.390Z,97228.06
2023-02-24T21:04:19.440Z,97223.27
2023-02-24T21:06:47.478Z,97215.89
2023-02-24T21:09:15.369Z,97206.48
2023-02-24T21:11:42.685Z,97207.64
2023-02-24T21:14:14.908Z,97204.29
2023-02-24T21:16:42.022Z,97199.77
2023-02-24T21:19:09.089Z,97192.53
2023-02-24T21:21:36.125Z,97186.22
2023-02-24T21:24:04.539Z,97178.98
2023-02-24T21:26:31.496Z,97170.25
2023-02-24T21:28:58.743Z,97167.02
2023-02-24T21:31:26.829Z,97162.39
2023-02-24T21:33:55.043Z,97158.54
2023-02-24T21:36:27.108Z,97157.36
2023-02-24T21:38:54.933Z,97157.30
2023-02-24T21:41:23.046Z,97152.48
2023-02-24T21:43:55.102Z,97148.35
2023-02-24T21:46:27.451Z,97148.66
2023-02-24T21:48:58.756Z,97146.05
2023-02-24T21:51:27.415Z,97141.00
2023-02-24T21:53:56.182Z,97136.64
2023-02-24T21:56:26.260Z,97127.48
2023-02-24T21:58:59.603Z,97113.11
2023-02-24T22:01:32.604Z,97126.80
2023-02-24T22:04:03.551Z,97137.21
2023-02-24T22:06:33.120Z,97149.30
2023-02-24T22:09:01.976Z,97158.73
2023-02-24T22:11:31.159Z,97158.69
2023-02-24T22:13:58.310Z,97155.19
2023-02-24T22:16:25.820Z,97141.45
2023-02-24T22:18:54.630Z,97131.73
2023-02-24T22:21:24.497Z,97125.21
2023-02-24T22:23:53.640Z,97122.66
2023-02-24T22:26:25.087Z,97111.67
2023-02-24T22:28:53.540Z,97101.86
2023-02-24T22:31:24.182Z,97092.16
2023-02-24T22:33:51.292Z,97089.52
2023-02-24T22:36:21.806Z,97088.68
2023-02-24T22:38:49.136Z,97086.13
2023-02-24T22:41:19.329Z,97088.77
2023-02-24T22:43:46.828Z,97091.53
2023-02-24T22:46:16.973Z,97093.04
2023-02-24T22:48:44.134Z,97086.03
2023-02-24T22:51:13.078Z,97084.77
2023-02-24T22:53:45.982Z,97074.73
2023-02-24T22:56:15.234Z,97065.56
2023-02-24T22:58:42.837Z,97066.24
2023-02-24T23:01:12.137Z,97059.60
2023-02-24T23:03:40.095Z,97052.64
2023-02-24T23:06:10.008Z,97044.09
2023-02-24T23:08:38.535Z,97038.27
2023-02-24T23:11:08.290Z,97029.73
2023-02-24T23:13:35.282Z,97031.27
2023-02-24T23:16:03.722Z,97033.16
2023-02-24T23:18:32.491Z,97034.77
2023-02-24T23:21:02.709Z,97033.86
2023-02-24T23:23:31.188Z,97029.85
2023-02-24T23:25:59.070Z,97029.39
2023-02-24T23:28:27.572Z,97028.91
2023-02-24T23:30:54.983Z,97027.99
2023-02-24T23:33:22.706Z,97023.11
2023-02-24T23:35:49.882Z,97020.14
2023-02-24T23:38:17.964Z,97017.49
2023-02-24T23:40:50.826Z,97009.13
2023-02-24T23:43:18.223Z,97004.77
2023-02-24T23:45:45.369Z,97000.09
2023-02-24T23:48:13.814Z,97000.67
2023-02-24T23:50:42.276Z,96996.35
2023-02-24T23:53:09.763Z,96989.70
2023-02-24T23:55:40.231Z,96983.51
2023-02-24T23:58:07.674Z,96977.19
